South Duxbury, Vermont
Current Conditions -  °F | °C
As of 8:51 PM on Monday 24 Nov 2014 (Local Time) from KMPV Reporting Station
Few Clouds Few Clouds  
Wind Chill: 63°   Ceiling: Unl
Heat Index: 63°   Visibility: 10mi
Dew Point: 47°   Wind: 22mph
Humidity: 56%   Direction: 210°SSW
Pressure: 29.5"   Gusts: 33mph
Location:  44.2533°N, 72.7398°W
Report Text: KMPV 250151Z AUTO 21019G29KT 10SM FEW050 FEW100 17/08 A2950 RMK AO2 PK WND 22030/0126 RAE0057 SLP991 P0000 T01720083
Loading
Personal Weather Stations






























Interactive Weather Map New forecast layout! Learn more

10-Day Weather Forecast

Advertisements
Track Severe Weather on mobile